createdAt,value
2018-11-04T00:02:35.234Z,0.00
2018-11-04T00:12:35.250Z,0.00
2018-11-04T00:22:35.250Z,0.00
2018-11-04T00:32:35.243Z,0.00
2018-11-04T00:42:35.305Z,0.00
2018-11-04T00:52:35.254Z,0.00
2018-11-04T01:02:35.246Z,0.02
2018-11-04T01:12:35.204Z,0.00
2018-11-04T01:22:35.257Z,0.00
2018-11-04T01:32:35.186Z,0.00
2018-11-04T01:42:35.221Z,0.00
2018-11-04T01:52:35.276Z,0.01
2018-11-04T02:02:35.223Z,0.00
2018-11-04T02:12:35.262Z,0.00
2018-11-04T02:22:35.250Z,0.01
2018-11-04T02:32:35.312Z,0.00
2018-11-04T02:42:35.240Z,0.00
2018-11-04T02:52:35.244Z,0.00
2018-11-04T03:02:35.271Z,0.00
2018-11-04T03:12:35.370Z,0.02
2018-11-04T03:22:35.185Z,0.00
2018-11-04T03:32:35.320Z,0.00
2018-11-04T03:42:35.333Z,0.00
2018-11-04T03:52:36.187Z,0.00
2018-11-04T04:02:35.265Z,0.01
2018-11-04T04:12:35.191Z,0.00
2018-11-04T04:22:35.184Z,0.00
2018-11-04T04:32:35.163Z,0.00
2018-11-04T04:42:35.242Z,0.01
2018-11-04T04:52:35.221Z,0.00
2018-11-04T05:02:35.169Z,0.00
2018-11-04T05:12:35.234Z,0.00
2018-11-04T05:22:35.214Z,0.00
2018-11-04T05:32:35.136Z,0.01
2018-11-04T05:42:35.171Z,0.03
2018-11-04T05:52:35.186Z,0.02
2018-11-04T06:02:35.207Z,0.00
2018-11-04T06:12:35.148Z,0.00
2018-11-04T06:22:35.137Z,0.00
2018-11-04T06:32:35.159Z,0.00
2018-11-04T06:42:35.180Z,0.00
2018-11-04T06:52:35.205Z,0.00
2018-11-04T07:02:35.195Z,0.00
2018-11-04T07:12:35.146Z,0.00
2018-11-04T07:22:35.142Z,0.01
2018-11-04T07:32:35.243Z,0.01
2018-11-04T07:42:35.183Z,0.00
2018-11-04T07:52:35.665Z,0.01
2018-11-04T08:02:35.119Z,0.08
2018-11-04T08:12:35.188Z,0.41
2018-11-04T08:22:35.133Z,0.95
2018-11-04T08:32:35.213Z,0.65
2018-11-04T08:42:35.187Z,0.80
2018-11-04T08:52:35.375Z,1.02
2018-11-04T09:02:36.583Z,0.89
2018-11-04T09:12:42.628Z,0.79
2018-11-04T09:22:35.321Z,0.48
2018-11-04T09:32:39.308Z,0.54
2018-11-04T09:42:35.118Z,0.89
2018-11-04T09:52:35.285Z,0.28
2018-11-04T10:02:35.361Z,0.53
2018-11-04T10:12:35.134Z,0.61
2018-11-04T10:22:35.295Z,0.56
2018-11-04T10:32:35.246Z,1.05
2018-11-04T10:42:35.190Z,1.60
2018-11-04T10:52:35.201Z,1.70
2018-11-04T11:02:35.247Z,1.72
2018-11-04T11:12:35.291Z,1.89
2018-11-04T11:22:35.235Z,1.63
2018-11-04T11:32:35.193Z,1.21
2018-11-04T11:42:35.235Z,1.34
2018-11-04T11:52:35.235Z,0.86
2018-11-04T12:02:35.168Z,1.23
2018-11-04T12:12:35.190Z,0.89
2018-11-04T12:22:35.198Z,1.53
2018-11-04T12:32:35.254Z,1.47
2018-11-04T12:42:35.406Z,1.43
2018-11-04T12:52:35.207Z,1.66
2018-11-04T13:02:35.228Z,1.61
2018-11-04T13:12:35.198Z,1.17
2018-11-04T13:22:35.284Z,0.84
2018-11-04T13:32:36.141Z,1.15
2018-11-04T13:42:35.316Z,1.28
2018-11-04T13:52:35.209Z,0.85
2018-11-04T14:02:36.220Z,0.88
2018-11-04T14:12:35.294Z,0.40
2018-11-04T14:22:35.409Z,0.78
2018-11-04T14:32:35.221Z,0.76
2018-11-04T14:42:35.600Z,0.38
2018-11-04T14:52:35.262Z,0.47
2018-11-04T15:02:35.243Z,0.63
2018-11-04T15:12:35.318Z,0.24
2018-11-04T15:22:35.288Z,0.62
2018-11-04T15:32:35.292Z,0.38
2018-11-04T15:42:35.259Z,0.43
2018-11-04T15:52:35.482Z,0.97
2018-11-04T16:02:35.280Z,0.82
2018-11-04T16:12:35.578Z,0.31
2018-11-04T16:22:35.251Z,0.04
2018-11-04T16:32:35.269Z,0.06
2018-11-04T16:42:35.249Z,0.04
2018-11-04T16:52:35.405Z,0.00
2018-11-04T17:02:35.582Z,0.00
2018-11-04T17:12:35.292Z,0.03
2018-11-04T17:22:35.286Z,0.14
2018-11-04T17:32:35.211Z,0.11
2018-11-04T17:42:35.250Z,0.01
2018-11-04T17:52:35.280Z,0.02
2018-11-04T18:02:35.273Z,0.18
2018-11-04T18:12:35.201Z,0.01
2018-11-04T18:22:35.257Z,0.04
2018-11-04T18:32:35.220Z,0.00
2018-11-04T18:42:35.468Z,0.00
2018-11-04T18:52:35.346Z,0.05
2018-11-04T19:02:35.318Z,0.04
2018-11-04T19:12:35.284Z,0.04
2018-11-04T19:22:35.259Z,0.17
2018-11-04T19:32:35.204Z,0.14
2018-11-04T19:42:35.910Z,0.00
2018-11-04T19:52:35.598Z,0.03
2018-11-04T20:02:36.077Z,0.00
2018-11-04T20:12:35.257Z,0.00
2018-11-04T20:22:35.229Z,0.00
2018-11-04T20:32:35.252Z,0.03
2018-11-04T20:42:35.252Z,0.05
2018-11-04T20:52:35.167Z,0.05
2018-11-04T21:02:36.391Z,0.00
2018-11-04T21:12:35.253Z,0.17
2018-11-04T21:22:35.280Z,0.01
2018-11-04T21:32:35.240Z,0.32
2018-11-04T21:42:35.503Z,0.00
2018-11-04T21:52:35.279Z,0.04
2018-11-04T22:02:35.331Z,0.09
2018-11-04T22:12:35.223Z,0.00
2018-11-04T22:22:35.221Z,0.00
2018-11-04T22:32:35.241Z,0.17
2018-11-04T22:42:35.188Z,0.21
2018-11-04T22:52:35.168Z,0.02
2018-11-04T23:02:35.213Z,0.11
2018-11-04T23:12:36.192Z,0.07
2018-11-04T23:22:36.658Z,0.34
2018-11-04T23:32:42.501Z,0.10
2018-11-04T23:42:35.277Z,0.05
2018-11-04T23:52:35.278Z,0.05
